createdAt,value
2023-02-05T00:00:11.223Z,17.93
2023-02-05T00:05:13.143Z,17.94
2023-02-05T00:10:15.253Z,17.99
2023-02-05T00:15:17.180Z,17.95
2023-02-05T00:20:19.246Z,17.96
2023-02-05T00:25:21.521Z,17.94
2023-02-05T00:30:23.565Z,17.92
2023-02-05T00:35:25.681Z,17.96
2023-02-05T00:40:27.469Z,17.93
2023-02-05T00:45:35.577Z,17.95
2023-02-05T00:50:37.994Z,17.99
2023-02-05T00:55:39.922Z,17.91
2023-02-05T01:00:41.964Z,17.88
2023-02-05T01:05:43.850Z,17.93
2023-02-05T01:10:48.495Z,17.91
2023-02-05T01:15:50.564Z,17.95
2023-02-05T01:20:52.683Z,17.91
2023-02-05T01:25:54.534Z,17.90
2023-02-05T01:30:56.756Z,17.96
2023-02-05T01:35:58.844Z,17.89
2023-02-05T01:41:00.971Z,17.90
2023-02-05T01:46:20.847Z,17.88
2023-02-05T01:51:23.650Z,17.91
2023-02-05T01:56:32.051Z,17.91
2023-02-05T02:01:37.931Z,17.91
2023-02-05T02:06:39.614Z,17.91
2023-02-05T02:11:43.690Z,17.98
2023-02-05T02:16:46.030Z,17.99
2023-02-05T02:22:09.679Z,17.97
2023-02-05T02:27:17.490Z,17.92
2023-02-05T02:32:30.051Z,17.93
2023-02-05T02:37:44.392Z,17.98
2023-02-05T02:42:53.665Z,17.92
2023-02-05T02:47:59.365Z,17.92
2023-02-05T02:53:09.802Z,17.89
2023-02-05T02:58:26.140Z,17.94
2023-02-05T03:03:32.352Z,17.92
2023-02-05T03:08:45.285Z,17.91
2023-02-05T03:13:48.328Z,17.93
2023-02-05T03:18:50.916Z,17.89
2023-02-05T03:23:52.855Z,17.90
2023-02-05T03:28:56.539Z,17.88
2023-02-05T03:34:26.142Z,17.91
2023-02-05T03:39:36.379Z,17.91
2023-02-05T03:44:50.052Z,17.92
2023-02-05T03:50:07.693Z,17.92
2023-02-05T03:55:20.476Z,17.90
2023-02-05T04:00:24.647Z,17.92
2023-02-05T04:05:26.498Z,17.90
2023-02-05T04:10:28.203Z,17.90
2023-02-05T04:15:29.929Z,17.95
2023-02-05T04:20:31.942Z,17.98
2023-02-05T04:25:34.309Z,17.94
2023-02-05T04:30:36.455Z,17.94
2023-02-05T04:35:38.404Z,17.91
2023-02-05T04:40:40.458Z,17.97
2023-02-05T04:45:42.234Z,17.91
2023-02-05T04:50:44.393Z,17.88
2023-02-05T04:55:46.428Z,17.88
2023-02-05T05:00:48.437Z,17.93
2023-02-05T05:05:50.530Z,17.92
2023-02-05T05:10:52.354Z,17.94
2023-02-05T05:15:57.362Z,17.91
2023-02-05T05:20:59.689Z,17.94
2023-02-05T05:26:07.857Z,17.90
2023-02-05T05:31:13.846Z,17.91
2023-02-05T05:36:16.343Z,17.88
2023-02-05T05:41:40.705Z,17.90
2023-02-05T05:46:42.625Z,17.91
2023-02-05T05:51:44.570Z,17.92
2023-02-05T05:56:46.617Z,17.88
2023-02-05T06:01:48.434Z,17.87
2023-02-05T06:06:50.287Z,17.86
2023-02-05T06:11:52.345Z,17.88
2023-02-05T06:16:56.025Z,17.90
2023-02-05T06:21:58.116Z,17.89
2023-02-05T06:27:00.002Z,17.90
2023-02-05T06:32:01.905Z,17.83
2023-02-05T06:37:04.151Z,17.90
2023-02-05T06:42:06.619Z,17.90
2023-02-05T06:47:08.568Z,17.90
2023-02-05T06:52:10.451Z,17.88
2023-02-05T06:57:12.551Z,17.89
2023-02-05T07:02:14.981Z,17.87
2023-02-05T07:07:17.528Z,17.87
2023-02-05T07:12:20.057Z,17.86
2023-02-05T07:17:22.389Z,17.85
2023-02-05T07:22:24.847Z,17.85
2023-02-05T07:27:27.106Z,17.85
2023-02-05T07:32:29.007Z,17.90
2023-02-05T07:37:31.078Z,17.92
2023-02-05T07:42:33.054Z,17.86
2023-02-05T07:47:35.137Z,17.86
2023-02-05T07:52:37.274Z,17.82
2023-02-05T07:57:39.150Z,17.83
2023-02-05T08:02:41.392Z,17.83
2023-02-05T08:07:43.201Z,17.81
2023-02-05T08:12:44.967Z,17.82
2023-02-05T08:17:46.833Z,17.73
2023-02-05T08:22:48.906Z,17.79
2023-02-05T08:27:50.866Z,17.83
2023-02-05T08:32:52.831Z,17.81
2023-02-05T08:37:54.726Z,17.83
2023-02-05T08:42:58.160Z,17.78
2023-02-05T08:48:00.200Z,17.71
2023-02-05T08:53:02.616Z,17.80
2023-02-05T08:58:04.666Z,17.82
2023-02-05T09:03:06.895Z,17.78
2023-02-05T09:08:08.750Z,17.78
2023-02-05T09:13:11.438Z,17.81
2023-02-05T09:18:13.858Z,17.74
2023-02-05T09:23:17.425Z,17.44
2023-02-05T09:28:19.617Z,17.35
2023-02-05T09:33:21.655Z,17.38
2023-02-05T09:38:23.450Z,17.28
2023-02-05T09:43:44.345Z,17.22
2023-02-05T09:49:20.697Z,17.43
2023-02-05T09:54:36.955Z,17.40
2023-02-05T09:59:44.414Z,17.10
2023-02-05T10:04:46.406Z,17.17
2023-02-05T10:10:05.177Z,17.37
2023-02-05T10:15:25.853Z,17.32
2023-02-05T10:20:42.088Z,17.18
2023-02-05T10:25:55.264Z,17.00
2023-02-05T10:31:06.265Z,17.37
2023-02-05T10:36:11.610Z,17.15
2023-02-05T10:41:23.040Z,17.14
2023-02-05T10:46:31.500Z,17.30
2023-02-05T10:51:40.847Z,17.33
2023-02-05T10:56:43.738Z,17.19
2023-02-05T11:01:46.493Z,17.30
2023-02-05T11:06:50.773Z,17.24
2023-02-05T11:12:05.274Z,17.27
2023-02-05T11:17:35.159Z,17.08
2023-02-05T11:22:39.982Z,17.08
2023-02-05T11:27:41.988Z,17.02
2023-02-05T11:32:44.309Z,17.13
2023-02-05T11:37:49.101Z,17.09
2023-02-05T11:43:26.438Z,17.04
2023-02-05T11:48:37.824Z,16.81
2023-02-05T11:53:50.669Z,16.66
2023-02-05T11:59:00.469Z,16.96
2023-02-05T12:04:15.094Z,16.82
2023-02-05T12:09:30.251Z,16.80
2023-02-05T12:14:42.341Z,16.64
2023-02-05T12:19:50.027Z,16.77
2023-02-05T12:25:14.459Z,16.84
2023-02-05T12:30:25.101Z,16.76
2023-02-05T12:35:26.983Z,16.81
2023-02-05T12:40:34.559Z,17.00
2023-02-05T12:45:51.507Z,17.09
2023-02-05T12:51:31.142Z,16.83
2023-02-05T12:56:58.474Z,16.64
2023-02-05T13:02:07.647Z,16.90
2023-02-05T13:07:28.158Z,16.99
2023-02-05T13:12:35.972Z,17.08
2023-02-05T13:18:00.773Z,17.04
2023-02-05T13:23:22.182Z,16.93
2023-02-05T13:28:42.229Z,17.00
2023-02-05T13:33:44.799Z,16.99
2023-02-05T13:39:24.364Z,17.07
2023-02-05T13:44:39.997Z,17.03
2023-02-05T13:50:14.331Z,17.13
2023-02-05T13:55:29.375Z,17.13
2023-02-05T14:00:32.289Z,17.17
2023-02-05T14:05:39.772Z,17.11
2023-02-05T14:10:49.485Z,17.16
2023-02-05T14:15:57.737Z,17.16
2023-02-05T14:20:59.605Z,17.12
2023-02-05T14:26:07.796Z,17.18
2023-02-05T14:31:46.153Z,17.14
2023-02-05T14:36:48.092Z,17.14
2023-02-05T14:41:56.137Z,17.14
2023-02-05T14:47:03.210Z,17.15
2023-02-05T14:52:27.158Z,17.15
2023-02-05T14:57:58.918Z,17.19
2023-02-05T15:03:13.181Z,17.37
2023-02-05T15:08:18.971Z,17.33
2023-02-05T15:13:22.854Z,17.20
2023-02-05T15:18:28.923Z,17.10
2023-02-05T15:23:40.990Z,17.18
2023-02-05T15:28:52.254Z,17.14
2023-02-05T15:34:03.002Z,17.05
2023-02-05T15:39:19.992Z,17.08
2023-02-05T15:44:31.048Z,17.15
2023-02-05T15:49:38.431Z,17.09
2023-02-05T15:54:40.744Z,17.16
2023-02-05T15:59:42.620Z,17.09
2023-02-05T16:04:45.013Z,17.00
2023-02-05T16:09:49.059Z,17.09
2023-02-05T16:15:02.024Z,17.11
2023-02-05T16:20:23.381Z,17.10
2023-02-05T16:25:46.509Z,17.11
2023-02-05T16:30:50.883Z,17.32
2023-02-05T16:35:53.644Z,17.61
2023-02-05T16:40:59.497Z,17.50
2023-02-05T16:46:07.544Z,17.51
2023-02-05T16:51:28.342Z,17.42
2023-02-05T16:56:36.551Z,17.60
2023-02-05T17:01:43.091Z,17.59
2023-02-05T17:06:44.928Z,17.66
2023-02-05T17:11:46.896Z,17.64
2023-02-05T17:17:03.016Z,17.60
2023-02-05T17:22:11.006Z,17.53
2023-02-05T17:27:27.118Z,17.61
2023-02-05T17:32:30.259Z,17.64
2023-02-05T17:37:32.048Z,17.60
2023-02-05T17:42:33.781Z,17.60
2023-02-05T17:47:35.755Z,17.61
2023-02-05T17:52:38.042Z,17.34
2023-02-05T17:57:40.933Z,17.37
2023-02-05T18:02:43.094Z,17.23
2023-02-05T18:07:57.068Z,17.17
2023-02-05T18:12:59.312Z,17.15
2023-02-05T18:18:01.428Z,17.34
2023-02-05T18:23:04.016Z,17.26
2023-02-05T18:28:06.150Z,17.18
2023-02-05T18:33:08.481Z,17.37
2023-02-05T18:38:10.426Z,17.35
2023-02-05T18:43:13.461Z,17.43
2023-02-05T18:48:15.624Z,17.49
2023-02-05T18:53:17.466Z,17.51
2023-02-05T18:58:19.324Z,17.47
2023-02-05T19:03:21.263Z,17.48
2023-02-05T19:08:23.380Z,17.42
2023-02-05T19:13:25.122Z,17.37
2023-02-05T19:18:26.894Z,17.32
2023-02-05T19:23:29.298Z,17.37
2023-02-05T19:28:32.634Z,17.29
2023-02-05T19:33:35.800Z,17.28
2023-02-05T19:38:40.025Z,17.27
2023-02-05T19:43:52.122Z,17.29
2023-02-05T19:48:56.148Z,17.35
2023-02-05T19:53:59.779Z,17.33
2023-02-05T19:59:02.056Z,17.30
2023-02-05T20:04:17.587Z,17.27
2023-02-05T20:09:20.134Z,17.28
2023-02-05T20:14:23.351Z,17.57
2023-02-05T20:19:25.301Z,17.58
2023-02-05T20:24:27.468Z,17.39
2023-02-05T20:29:48.205Z,17.42
2023-02-05T20:34:50.534Z,17.32
2023-02-05T20:39:52.451Z,17.27
2023-02-05T20:44:54.484Z,17.26
2023-02-05T20:49:56.418Z,17.28
2023-02-05T20:54:58.412Z,17.26
2023-02-05T21:00:00.232Z,17.23
2023-02-05T21:05:02.278Z,17.30
2023-02-05T21:10:05.942Z,17.27
2023-02-05T21:15:08.274Z,17.24
2023-02-05T21:20:10.573Z,17.24
2023-02-05T21:25:12.311Z,17.22
2023-02-05T21:30:14.335Z,17.21
2023-02-05T21:35:16.476Z,17.21
2023-02-05T21:40:18.650Z,17.20
2023-02-05T21:45:20.649Z,17.27
2023-02-05T21:50:22.553Z,17.89
2023-02-05T21:55:27.336Z,17.77
2023-02-05T22:00:29.229Z,17.72
2023-02-05T22:05:31.313Z,17.72
2023-02-05T22:10:33.616Z,17.68
2023-02-05T22:15:36.067Z,17.52
2023-02-05T22:20:38.493Z,17.47
2023-02-05T22:25:46.589Z,17.43
2023-02-05T22:30:48.693Z,17.37
2023-02-05T22:35:54.284Z,17.38
2023-02-05T22:40:56.157Z,17.28
2023-02-05T22:46:06.506Z,17.30
2023-02-05T22:51:11.305Z,17.24
2023-02-05T22:56:13.718Z,17.28
2023-02-05T23:01:17.363Z,17.25
2023-02-05T23:06:32.710Z,17.26
2023-02-05T23:11:35.888Z,17.19
2023-02-05T23:16:41.433Z,17.18
2023-02-05T23:21:43.876Z,17.19
2023-02-05T23:26:48.625Z,17.17
2023-02-05T23:31:50.535Z,17.15
2023-02-05T23:36:52.536Z,17.21
2023-02-05T23:41:54.271Z,17.16
2023-02-05T23:46:56.212Z,17.14
2023-02-05T23:51:58.576Z,17.11
2023-02-05T23:57:00.408Z,17.08
